createdAt,value
2018-06-20T00:00:30.818Z,13.30
2018-06-20T00:02:59.187Z,13.07
2018-06-20T00:05:27.530Z,13.50
2018-06-20T00:07:55.896Z,12.70
2018-06-20T00:10:24.235Z,13.27
2018-06-20T00:12:52.641Z,12.87
2018-06-20T00:15:21.004Z,13.60
2018-06-20T00:17:49.376Z,13.00
2018-06-20T00:20:17.722Z,13.53
2018-06-20T00:22:45.814Z,13.07
2018-06-20T00:25:14.156Z,14.20
2018-06-20T00:27:42.531Z,12.63
2018-06-20T00:30:10.886Z,12.87
2018-06-20T00:32:39.245Z,12.60
2018-06-20T00:35:07.625Z,12.73
2018-06-20T00:37:35.977Z,13.03
2018-06-20T00:40:04.079Z,14.00
2018-06-20T00:42:32.458Z,12.90
2018-06-20T00:45:00.822Z,13.53
2018-06-20T00:47:29.167Z,12.20
2018-06-20T00:49:57.792Z,13.23
2018-06-20T00:52:26.135Z,13.47
2018-06-20T00:54:54.550Z,12.60
2018-06-20T00:57:22.887Z,13.40
2018-06-20T00:59:51.244Z,14.23
2018-06-20T01:02:19.654Z,13.50
2018-06-20T01:04:48.227Z,12.73
2018-06-20T01:07:16.628Z,13.47
2018-06-20T01:09:44.722Z,13.57
2018-06-20T01:12:13.088Z,13.73
2018-06-20T01:14:41.452Z,12.70
2018-06-20T01:17:10.606Z,13.47
2018-06-20T01:19:38.759Z,12.77
2018-06-20T01:22:07.116Z,14.00
2018-06-20T01:24:35.211Z,13.33
2018-06-20T01:27:03.567Z,13.00
2018-06-20T01:29:31.951Z,13.27
2018-06-20T01:32:00.024Z,13.13
2018-06-20T01:34:28.581Z,12.83
2018-06-20T01:36:56.923Z,12.60
2018-06-20T01:39:25.284Z,12.23
2018-06-20T01:41:53.620Z,12.97
2018-06-20T01:44:21.993Z,12.73
2018-06-20T01:46:50.339Z,12.97
2018-06-20T01:49:18.736Z,13.00
2018-06-20T01:51:47.541Z,12.83
2018-06-20T01:54:15.908Z,13.20
2018-06-20T01:56:44.264Z,14.80
2018-06-20T01:59:12.644Z,14.00
2018-06-20T02:01:40.995Z,14.17
2018-06-20T02:04:09.379Z,13.97
2018-06-20T02:06:37.707Z,14.40
2018-06-20T02:09:07.163Z,13.17
2018-06-20T02:11:35.548Z,12.90
2018-06-20T02:14:03.915Z,14.60
2018-06-20T02:16:32.255Z,13.87
2018-06-20T02:19:00.379Z,13.67
2018-06-20T02:21:28.716Z,13.93
2018-06-20T02:23:57.117Z,13.53
2018-06-20T02:26:25.459Z,14.97
2018-06-20T02:28:53.813Z,13.37
2018-06-20T02:31:22.180Z,14.40
2018-06-20T02:33:50.517Z,13.83
2018-06-20T02:36:24.276Z,14.93
2018-06-20T02:38:52.607Z,14.87
2018-06-20T02:41:20.987Z,13.77
2018-06-20T02:43:49.057Z,14.63
2018-06-20T02:46:17.432Z,14.80
2018-06-20T02:48:46.053Z,14.83
2018-06-20T02:51:14.428Z,14.60
2018-06-20T02:53:42.764Z,14.70
2018-06-20T02:56:11.199Z,15.90
2018-06-20T02:58:39.560Z,15.30
2018-06-20T03:01:08.160Z,15.10
2018-06-20T03:03:36.545Z,14.83
2018-06-20T03:06:04.964Z,15.33
2018-06-20T03:08:33.318Z,15.20
2018-06-20T03:11:01.725Z,14.40
2018-06-20T03:13:30.092Z,16.00
2018-06-20T03:15:58.509Z,15.50
2018-06-20T03:18:26.584Z,15.97
2018-06-20T03:20:54.952Z,15.93
2018-06-20T03:23:23.290Z,15.20
2018-06-20T03:25:51.651Z,14.77
2018-06-20T03:28:19.989Z,15.00
2018-06-20T03:30:48.357Z,15.97
2018-06-20T03:33:16.700Z,15.13
2018-06-20T03:35:45.056Z,15.33
2018-06-20T03:38:13.396Z,16.33
2018-06-20T03:40:41.760Z,16.10
2018-06-20T03:43:10.090Z,16.77
2018-06-20T03:45:38.446Z,15.37
2018-06-20T03:48:06.768Z,16.20
2018-06-20T03:50:35.133Z,15.17
2018-06-20T03:53:03.464Z,14.57
2018-06-20T03:55:32.100Z,15.97
2018-06-20T03:58:00.436Z,14.80
2018-06-20T04:00:28.804Z,14.57
2018-06-20T04:02:57.166Z,14.83
2018-06-20T04:05:28.071Z,15.57
2018-06-20T04:07:56.399Z,15.27
2018-06-20T04:10:24.771Z,15.13
2018-06-20T04:12:53.144Z,15.40
2018-06-20T04:15:21.509Z,15.90
2018-06-20T04:17:49.847Z,15.20
2018-06-20T04:20:18.208Z,15.83
2018-06-20T04:22:46.548Z,16.00
2018-06-20T04:25:14.884Z,16.00
2018-06-20T04:27:43.247Z,16.17
2018-06-20T04:30:11.575Z,15.07
2018-06-20T04:32:39.952Z,16.40
2018-06-20T04:35:08.483Z,15.30
2018-06-20T04:37:36.848Z,16.27
2018-06-20T04:40:05.183Z,15.23
2018-06-20T04:42:33.888Z,16.23
2018-06-20T04:45:02.528Z,16.03
2018-06-20T04:47:30.895Z,16.07
2018-06-20T04:49:59.236Z,15.87
2018-06-20T04:52:27.595Z,15.47
2018-06-20T04:54:55.927Z,16.20
2018-06-20T04:57:24.307Z,16.83
2018-06-20T04:59:52.645Z,15.50
2018-06-20T05:02:21.080Z,15.47
2018-06-20T05:04:49.412Z,15.87
2018-06-20T05:07:17.781Z,15.80
2018-06-20T05:09:46.112Z,16.63
2018-06-20T05:12:14.509Z,15.67
2018-06-20T05:14:42.839Z,15.93
2018-06-20T05:17:11.208Z,17.37
2018-06-20T05:19:39.543Z,15.20
2018-06-20T05:22:07.643Z,16.40
2018-06-20T05:24:35.976Z,15.90
2018-06-20T05:27:04.400Z,15.93
2018-06-20T05:29:32.752Z,16.43
2018-06-20T05:32:00.851Z,15.90
2018-06-20T05:34:29.411Z,15.93
2018-06-20T05:36:58.285Z,16.47
2018-06-20T05:39:26.374Z,15.17
2018-06-20T05:41:55.808Z,15.87
2018-06-20T05:44:25.552Z,15.97
2018-06-20T05:46:55.295Z,16.77
2018-06-20T05:49:24.725Z,16.53
2018-06-20T05:51:53.156Z,16.47
2018-06-20T05:54:23.650Z,16.23
2018-06-20T05:56:52.117Z,16.93
2018-06-20T05:59:20.469Z,15.80
2018-06-20T06:01:48.826Z,15.83
2018-06-20T06:04:17.160Z,16.43
2018-06-20T06:06:45.539Z,15.40
2018-06-20T06:09:13.880Z,16.17
2018-06-20T06:11:42.276Z,16.10
2018-06-20T06:14:10.343Z,15.10
2018-06-20T06:16:38.703Z,15.50
2018-06-20T06:19:07.037Z,15.43
2018-06-20T06:21:35.379Z,16.13
2018-06-20T06:24:03.475Z,16.97
2018-06-20T06:26:31.535Z,17.40
2018-06-20T06:28:59.642Z,15.77
2018-06-20T06:31:27.997Z,17.00
2018-06-20T06:33:56.658Z,17.07
2018-06-20T06:36:25.043Z,17.13
2018-06-20T06:38:53.141Z,16.67
2018-06-20T06:41:21.496Z,15.20
2018-06-20T06:43:49.876Z,15.60
2018-06-20T06:46:17.954Z,15.40
2018-06-20T06:48:46.054Z,15.53
2018-06-20T06:51:14.408Z,16.07
2018-06-20T06:53:42.505Z,15.07
2018-06-20T06:56:10.853Z,16.10
2018-06-20T06:58:38.956Z,15.30
2018-06-20T07:01:07.295Z,15.27
2018-06-20T07:03:35.671Z,15.30
2018-06-20T07:06:04.032Z,16.13
2018-06-20T07:08:32.410Z,15.63
2018-06-20T07:11:00.820Z,15.43
2018-06-20T07:13:29.193Z,15.77
2018-06-20T07:15:57.538Z,15.47
2018-06-20T07:18:25.918Z,16.53
2018-06-20T07:20:54.256Z,16.17
2018-06-20T07:23:22.633Z,16.97
2018-06-20T07:25:50.928Z,16.07
2018-06-20T07:28:19.300Z,16.13
2018-06-20T07:30:47.660Z,16.43
2018-06-20T07:33:15.819Z,17.73
2018-06-20T07:35:44.228Z,18.90
2018-06-20T07:38:12.319Z,16.70
2018-06-20T07:40:40.655Z,18.13
2018-06-20T07:43:09.032Z,17.30
2018-06-20T07:45:37.372Z,17.87
2018-06-20T07:48:05.732Z,17.53
2018-06-20T07:50:34.079Z,18.17
2018-06-20T07:53:02.552Z,17.20
2018-06-20T07:55:30.945Z,17.53
2018-06-20T07:57:59.043Z,17.80
2018-06-20T08:00:32.712Z,17.43
2018-06-20T08:03:12.136Z,17.80
2018-06-20T08:05:45.771Z,18.87
2018-06-20T08:08:19.220Z,18.20
2018-06-20T08:10:53.095Z,16.83
2018-06-20T08:13:26.740Z,17.67
2018-06-20T08:16:00.380Z,17.40
2018-06-20T08:18:33.923Z,16.53
2018-06-20T08:21:02.273Z,17.30
2018-06-20T08:23:30.630Z,16.23
2018-06-20T08:25:59.009Z,15.00
2018-06-20T08:28:27.371Z,15.77
2018-06-20T08:30:55.799Z,15.07
2018-06-20T08:33:24.355Z,14.03
2018-06-20T08:35:52.454Z,14.37
2018-06-20T08:38:20.807Z,13.57
2018-06-20T08:40:48.943Z,13.27
2018-06-20T08:43:17.286Z,12.93
2018-06-20T08:45:45.659Z,12.33
2018-06-20T08:48:13.994Z,11.40
2018-06-20T08:50:42.364Z,7.90
2018-06-20T08:53:10.744Z,7.53
2018-06-20T08:55:39.080Z,7.83
2018-06-20T08:58:07.416Z,8.20
2018-06-20T09:00:41.168Z,8.13
2018-06-20T09:03:09.503Z,8.13
2018-06-20T09:05:43.407Z,8.83
2018-06-20T09:09:20.080Z,8.33
2018-06-20T09:11:53.807Z,8.40
2018-06-20T09:14:22.203Z,8.37
2018-06-20T09:16:56.015Z,8.10
2018-06-20T09:19:29.566Z,8.53
2018-06-20T09:21:57.925Z,8.17
2018-06-20T09:24:26.481Z,7.47
2018-06-20T09:26:54.824Z,8.63
2018-06-20T09:29:23.175Z,7.90
2018-06-20T09:31:51.564Z,8.53
2018-06-20T09:34:19.911Z,7.17
2018-06-20T09:36:48.296Z,7.13
2018-06-20T09:39:16.652Z,7.53
2018-06-20T09:41:44.770Z,7.17
2018-06-20T09:44:13.112Z,6.87
2018-06-20T09:46:41.481Z,6.90
2018-06-20T09:49:09.862Z,6.87
2018-06-20T09:51:37.963Z,6.70
2018-06-20T09:54:06.316Z,6.80
2018-06-20T09:56:34.431Z,6.87
2018-06-20T09:59:08.199Z,6.67
2018-06-20T10:01:41.812Z,6.67
2018-06-20T10:04:15.570Z,6.63
2018-06-20T10:06:49.528Z,6.37
2018-06-20T10:10:25.854Z,5.93
2018-06-20T10:12:59.672Z,5.23
2018-06-20T10:15:28.011Z,5.37
2018-06-20T10:17:56.372Z,5.23
2018-06-20T10:20:26.625Z,4.50
2018-06-20T10:22:55.879Z,4.80
2018-06-20T10:25:24.235Z,5.00
2018-06-20T10:27:52.600Z,4.70
2018-06-20T10:30:20.967Z,5.00
2018-06-20T10:32:49.503Z,5.20
2018-06-20T10:35:17.841Z,5.60
2018-06-20T10:37:46.204Z,4.70
2018-06-20T10:40:14.576Z,4.73
2018-06-20T10:42:42.992Z,5.17
2018-06-20T10:45:16.707Z,5.53
2018-06-20T10:47:46.660Z,5.60
2018-06-20T10:50:15.034Z,4.87
2018-06-20T10:52:43.396Z,5.77
2018-06-20T10:55:14.103Z,5.30
2018-06-20T10:57:47.812Z,5.17
2018-06-20T11:00:21.560Z,4.43
2018-06-20T11:02:55.359Z,4.93
2018-06-20T11:05:29.015Z,4.77
2018-06-20T11:08:02.643Z,4.90
2018-06-20T11:10:36.014Z,4.73
2018-06-20T11:13:06.928Z,5.43
2018-06-20T11:15:35.550Z,5.30
2018-06-20T11:18:04.171Z,5.20
2018-06-20T11:20:37.922Z,4.90
2018-06-20T11:23:06.285Z,5.13
2018-06-20T11:25:34.611Z,4.90
2018-06-20T11:28:07.351Z,5.70
2018-06-20T11:30:35.735Z,4.90
2018-06-20T11:33:04.112Z,5.80
2018-06-20T11:35:32.435Z,5.90
2018-06-20T11:38:00.530Z,5.27
2018-06-20T11:40:28.876Z,5.53
2018-06-20T11:42:57.280Z,5.10
2018-06-20T11:45:29.852Z,5.67
2018-06-20T11:47:58.211Z,5.83
2018-06-20T11:50:26.539Z,5.20
2018-06-20T11:53:00.652Z,5.43
2018-06-20T11:55:34.304Z,5.60
2018-06-20T11:58:08.312Z,5.37
2018-06-20T12:00:41.923Z,5.62
2018-06-20T12:03:15.751Z,5.40
2018-06-20T12:05:49.289Z,5.17
2018-06-20T12:08:23.108Z,5.47
2018-06-20T12:10:56.748Z,6.20
2018-06-20T12:13:30.458Z,5.42
2018-06-20T12:16:04.100Z,5.83
2018-06-20T12:18:37.828Z,5.90
2018-06-20T12:21:11.392Z,6.08
2018-06-20T12:23:45.064Z,6.30
2018-06-20T12:26:18.564Z,6.35
2018-06-20T12:28:52.271Z,6.90
2018-06-20T12:31:25.938Z,6.92
2018-06-20T12:33:59.734Z,6.92
2018-06-20T12:36:33.586Z,7.72
2018-06-20T12:39:01.180Z,6.85
2018-06-20T12:42:38.448Z,7.17
2018-06-20T12:45:09.439Z,7.55
2018-06-20T12:47:48.983Z,7.72
2018-06-20T12:50:24.188Z,7.78
2018-06-20T12:52:52.748Z,7.95
2018-06-20T12:55:21.071Z,7.17
2018-06-20T12:57:49.419Z,8.33
2018-06-20T13:00:17.506Z,7.97
2018-06-20T13:02:46.169Z,7.25
2018-06-20T13:05:14.273Z,6.78
2018-06-20T13:07:42.613Z,7.70
2018-06-20T13:10:11.008Z,7.50
2018-06-20T13:12:39.196Z,7.83
2018-06-20T13:15:07.573Z,7.70
2018-06-20T13:17:35.935Z,7.42
2018-06-20T13:20:04.116Z,8.30
2018-06-20T13:22:32.455Z,7.72
2018-06-20T13:25:00.840Z,7.87
2018-06-20T13:27:34.544Z,8.30
2018-06-20T13:30:09.535Z,8.90
2018-06-20T13:32:43.390Z,7.28
2018-06-20T13:35:17.044Z,7.47
2018-06-20T13:37:50.808Z,8.10
2018-06-20T13:40:24.456Z,8.08
2018-06-20T13:42:58.101Z,8.45
2018-06-20T13:45:31.899Z,8.15
2018-06-20T13:48:05.339Z,8.38
2018-06-20T13:50:33.766Z,8.50
2018-06-20T13:53:02.134Z,7.55
2018-06-20T13:55:30.520Z,7.47
2018-06-20T13:57:58.887Z,8.63
2018-06-20T14:00:27.467Z,8.70
2018-06-20T14:02:56.128Z,8.35
2018-06-20T14:05:24.271Z,8.43
2018-06-20T14:07:52.624Z,8.93
2018-06-20T14:10:21.006Z,8.50
2018-06-20T14:12:49.392Z,8.15
2018-06-20T14:15:17.773Z,7.95
2018-06-20T14:17:46.124Z,7.50
2018-06-20T14:20:19.941Z,8.28
2018-06-20T14:22:48.295Z,8.50
2018-06-20T14:25:16.676Z,8.03
2018-06-20T14:27:45.032Z,7.72
2018-06-20T14:30:17.625Z,7.72
2018-06-20T14:32:51.282Z,7.37
2018-06-20T14:35:25.089Z,7.12
2018-06-20T14:37:58.895Z,7.42
2018-06-20T14:40:32.585Z,7.10
2018-06-20T14:43:02.660Z,8.03
2018-06-20T14:45:36.355Z,7.80
2018-06-20T14:48:04.733Z,7.90
2018-06-20T14:50:33.112Z,6.83
2018-06-20T14:53:01.461Z,7.25
2018-06-20T14:55:29.834Z,7.12
2018-06-20T14:57:58.183Z,6.70
2018-06-20T15:00:26.556Z,6.65
2018-06-20T15:02:54.920Z,6.55
2018-06-20T15:05:23.263Z,5.80
2018-06-20T15:07:52.430Z,5.25
2018-06-20T15:10:21.076Z,5.90
2018-06-20T15:12:49.492Z,5.25
2018-06-20T15:15:17.843Z,5.65
2018-06-20T15:17:45.956Z,5.00
2018-06-20T15:20:14.341Z,5.53
2018-06-20T15:22:46.595Z,5.42
2018-06-20T15:25:15.863Z,5.80
2018-06-20T15:27:49.738Z,5.17
2018-06-20T15:30:23.400Z,4.45
2018-06-20T15:32:57.143Z,5.25
2018-06-20T15:36:29.518Z,5.50
2018-06-20T15:38:57.867Z,4.85
2018-06-20T15:41:26.230Z,4.83
2018-06-20T15:43:54.336Z,4.87
2018-06-20T15:46:22.704Z,4.92
2018-06-20T15:48:51.089Z,4.87
2018-06-20T15:51:19.441Z,4.33
2018-06-20T15:53:47.820Z,4.58
2018-06-20T15:56:15.891Z,4.80
2018-06-20T15:58:43.990Z,4.47
2018-06-20T16:01:12.347Z,4.25
2018-06-20T16:03:40.720Z,4.83
2018-06-20T16:06:08.816Z,4.50
2018-06-20T16:08:42.628Z,4.60
2018-06-20T16:11:11.020Z,4.50
2018-06-20T16:13:39.395Z,4.83
2018-06-20T16:16:10.010Z,4.25
2018-06-20T16:18:38.731Z,4.12
2018-06-20T16:21:12.582Z,4.20
2018-06-20T16:23:46.190Z,4.55
2018-06-20T16:26:19.702Z,4.72
2018-06-20T16:28:53.302Z,4.40
2018-06-20T16:31:21.655Z,4.53
2018-06-20T16:33:50.095Z,4.53
2018-06-20T16:36:18.459Z,3.83
2018-06-20T16:38:46.828Z,4.37
2018-06-20T16:41:15.285Z,4.35
2018-06-20T16:43:43.770Z,4.62
2018-06-20T16:46:12.106Z,4.40
2018-06-20T16:48:40.476Z,4.33
2018-06-20T16:51:08.827Z,4.53
2018-06-20T16:53:37.382Z,4.37
2018-06-20T16:56:06.085Z,4.12
2018-06-20T16:58:34.459Z,4.10
2018-06-20T17:01:08.281Z,4.12
2018-06-20T17:03:36.727Z,3.92
2018-06-20T17:06:05.101Z,3.50
2018-06-20T17:08:33.476Z,2.80
2018-06-20T17:11:01.885Z,2.77
2018-06-20T17:13:35.547Z,3.45
2018-06-20T17:16:09.303Z,3.00
2018-06-20T17:18:42.777Z,2.70
2018-06-20T17:21:16.437Z,2.60
2018-06-20T17:23:50.131Z,2.60
2018-06-20T17:26:18.477Z,2.70
2018-06-20T17:28:46.563Z,2.70
2018-06-20T17:31:14.907Z,2.62
2018-06-20T17:33:45.272Z,2.40
2018-06-20T17:36:15.615Z,2.90
2018-06-20T17:38:44.032Z,2.77
2018-06-20T17:41:12.363Z,2.35
2018-06-20T17:43:40.736Z,2.60
2018-06-20T17:46:09.100Z,2.20
2018-06-20T17:48:37.195Z,2.25
2018-06-20T17:51:05.542Z,2.12
2018-06-20T17:53:33.916Z,2.45
2018-06-20T17:56:04.371Z,2.90
2018-06-20T17:58:33.276Z,2.30
2018-06-20T18:01:07.142Z,2.15
2018-06-20T18:03:35.539Z,2.33
2018-06-20T18:06:09.371Z,2.35
2018-06-20T18:08:43.060Z,2.47
2018-06-20T18:11:15.827Z,2.42
2018-06-20T18:13:49.660Z,2.72
2018-06-20T18:16:23.298Z,2.60
2018-06-20T18:18:51.684Z,2.47
2018-06-20T18:21:20.032Z,2.33
2018-06-20T18:23:48.476Z,2.50
2018-06-20T18:26:16.949Z,2.98
2018-06-20T18:28:45.344Z,2.80
2018-06-20T18:31:13.500Z,2.33
2018-06-20T18:33:41.980Z,2.65
2018-06-20T18:36:10.405Z,2.37
2018-06-20T18:38:38.732Z,2.67
2018-06-20T18:41:07.178Z,2.90
2018-06-20T18:43:35.472Z,2.37
2018-06-20T18:46:03.901Z,2.25
2018-06-20T18:48:32.238Z,2.50
2018-06-20T18:51:00.608Z,2.42
2018-06-20T18:53:28.942Z,2.55
2018-06-20T18:55:57.030Z,3.02
2018-06-20T18:58:30.692Z,2.50
2018-06-20T19:01:04.468Z,2.50
2018-06-20T19:03:39.132Z,2.70
2018-06-20T19:06:15.543Z,2.65
2018-06-20T19:08:51.440Z,3.25
2018-06-20T19:11:20.787Z,2.85
2018-06-20T19:13:49.260Z,2.75
2018-06-20T19:16:17.656Z,2.90
2018-06-20T19:18:46.030Z,2.77
2018-06-20T19:21:14.427Z,2.58
2018-06-20T19:23:42.769Z,2.72
2018-06-20T19:26:11.220Z,2.90
2018-06-20T19:28:39.573Z,2.75
2018-06-20T19:31:07.979Z,2.60
2018-06-20T19:33:36.359Z,2.50
2018-06-20T19:36:04.749Z,2.65
2018-06-20T19:38:33.136Z,2.90
2018-06-20T19:41:01.538Z,2.50
2018-06-20T19:43:29.664Z,2.72
2018-06-20T19:45:58.076Z,2.90
2018-06-20T19:48:26.446Z,2.77
2018-06-20T19:50:54.836Z,2.80
2018-06-20T19:53:23.185Z,2.70
2018-06-20T19:55:51.640Z,3.20
2018-06-20T19:58:20.046Z,2.40
2018-06-20T20:00:48.416Z,2.60
2018-06-20T20:03:16.823Z,2.70
2018-06-20T20:05:45.192Z,2.60
2018-06-20T20:08:13.599Z,2.80
2018-06-20T20:10:41.956Z,2.77
2018-06-20T20:13:10.413Z,2.50
2018-06-20T20:15:38.782Z,2.53
2018-06-20T20:18:07.171Z,2.67
2018-06-20T20:20:35.557Z,2.60
2018-06-20T20:23:03.933Z,3.10
2018-06-20T20:25:32.346Z,2.67
2018-06-20T20:28:00.807Z,2.75
2018-06-20T20:30:29.188Z,2.90
2018-06-20T20:32:57.576Z,2.50
2018-06-20T20:35:25.953Z,2.72
2018-06-20T20:37:54.339Z,2.73
2018-06-20T20:40:22.732Z,2.70
2018-06-20T20:42:51.144Z,3.03
2018-06-20T20:45:19.499Z,2.93
2018-06-20T20:47:47.896Z,3.20
2018-06-20T20:50:16.292Z,2.73
2018-06-20T20:52:44.907Z,2.87
2018-06-20T20:55:13.386Z,2.93
2018-06-20T20:57:41.786Z,2.87
2018-06-20T21:00:10.153Z,2.83
2018-06-20T21:02:38.585Z,3.00
2018-06-20T21:05:07.001Z,2.80
2018-06-20T21:07:35.403Z,2.53
2018-06-20T21:10:03.849Z,3.53
2018-06-20T21:12:32.234Z,2.83
2018-06-20T21:15:00.604Z,3.27
2018-06-20T21:17:28.961Z,3.00
2018-06-20T21:19:57.355Z,3.60
2018-06-20T21:22:25.715Z,3.57
2018-06-20T21:24:54.096Z,3.13
2018-06-20T21:27:22.451Z,3.10
2018-06-20T21:29:50.860Z,3.13
2018-06-20T21:32:18.951Z,3.37
2018-06-20T21:34:47.379Z,3.30
2018-06-20T21:37:16.623Z,3.50
2018-06-20T21:39:44.727Z,4.03
2018-06-20T21:42:13.124Z,3.33
2018-06-20T21:44:41.511Z,3.10
2018-06-20T21:47:14.199Z,3.50
2018-06-20T21:49:43.404Z,3.37
2018-06-20T21:52:11.764Z,3.20
2018-06-20T21:54:40.175Z,3.30
2018-06-20T21:57:08.553Z,3.13
2018-06-20T21:59:36.681Z,3.53
2018-06-20T22:02:05.051Z,3.67
2018-06-20T22:04:33.427Z,3.70
2018-06-20T22:07:01.780Z,4.33
2018-06-20T22:09:30.191Z,3.93
2018-06-20T22:11:58.597Z,3.93
2018-06-20T22:14:27.024Z,3.87
2018-06-20T22:16:55.132Z,3.70
2018-06-20T22:19:23.530Z,3.57
2018-06-20T22:21:51.904Z,3.73
2018-06-20T22:24:20.033Z,3.73
2018-06-20T22:26:48.119Z,3.40
2018-06-20T22:29:16.528Z,3.47
2018-06-20T22:31:44.872Z,3.70
2018-06-20T22:34:13.284Z,3.50
2018-06-20T22:36:41.743Z,3.90
2018-06-20T22:39:10.855Z,4.07
2018-06-20T22:41:39.211Z,4.63
2018-06-20T22:44:07.812Z,4.00
2018-06-20T22:46:36.185Z,4.30
2018-06-20T22:49:04.626Z,3.73
2018-06-20T22:51:33.009Z,4.10
2018-06-20T22:54:01.391Z,4.50
2018-06-20T22:56:29.957Z,4.57
2018-06-20T22:58:58.440Z,5.23
2018-06-20T23:01:26.852Z,4.83
2018-06-20T23:03:55.664Z,4.77
2018-06-20T23:06:24.361Z,4.57
2018-06-20T23:08:52.750Z,4.77
2018-06-20T23:11:21.431Z,5.17
2018-06-20T23:13:50.180Z,4.20
2018-06-20T23:16:18.596Z,4.93
2018-06-20T23:18:47.011Z,4.67
2018-06-20T23:21:15.661Z,5.20
2018-06-20T23:23:44.118Z,5.20
2018-06-20T23:26:12.239Z,4.77
2018-06-20T23:28:40.660Z,3.93
2018-06-20T23:31:09.120Z,5.47
2018-06-20T23:33:37.491Z,5.00
2018-06-20T23:36:05.933Z,5.20
2018-06-20T23:38:34.341Z,4.47
2018-06-20T23:41:02.756Z,5.10
2018-06-20T23:43:31.133Z,5.17
2018-06-20T23:45:59.555Z,5.53
2018-06-20T23:48:27.964Z,5.20
2018-06-20T23:50:56.392Z,5.07
2018-06-20T23:53:24.783Z,5.50
2018-06-20T23:55:53.204Z,5.47
2018-06-20T23:58:21.601Z,5.23
